Time;durP1;ratioP1;P1;durP2;ratioP2;P2;SDS_P1;SDS_P2;PMS_P1;PMS_P2;Temp;Humidity;BMP_temperature;BMP_pressure;BME280_temperature;BME280_humidity;BME280_pressure;Samples;Min_cycle;Max_cycle;Signal;HPM_P1;HPM_P2
2023/01/19 00:01:53;;;;;;;3.10;1.60;;;;;;;16.84;53.71;99930.97;4863404;29;20029;-80
2023/01/19 00:04:18;;;;;;;3.45;1.45;;;;;;;16.84;53.57;99936.16;4862433;29;20465;-80
2023/01/19 00:06:44;;;;;;;4.18;1.40;;;;;;;16.85;53.41;99934.41;4847169;29;20037;-80
2023/01/19 00:09:09;;;;;;;3.40;1.35;;;;;;;16.83;53.51;99931.88;4870087;29;20062;-81
2023/01/19 00:11:35;;;;;;;3.10;1.40;;;;;;;16.84;53.53;99932.72;4877755;29;20064;-81
2023/01/19 00:14:00;;;;;;;2.90;1.30;;;;;;;16.82;53.52;99927.53;4879416;29;20037;-81
2023/01/19 00:16:26;;;;;;;2.85;1.27;;;;;;;16.82;53.59;99932.72;4876122;29;20037;-80
2023/01/19 00:18:51;;;;;;;3.28;1.55;;;;;;;16.83;53.42;99930.97;4870696;29;20030;-80
2023/01/19 00:21:18;;;;;;;3.00;1.38;;;;;;;16.82;53.55;99937.94;4856114;29;20093;-80
2023/01/19 00:23:46;;;;;;;3.53;1.60;;;;;;;16.82;53.61;99943.13;4855428;29;20037;-80
2023/01/19 00:26:17;;;;;;;2.70;1.27;;;;;;;16.82;53.53;99955.28;4868815;29;20490;-80
2023/01/19 00:28:43;;;;;;;4.43;1.40;;;;;;;16.81;53.47;99951.81;4884146;29;20035;-80
2023/01/19 00:31:09;;;;;;;2.90;1.15;;;;;;;16.80;53.44;99951.84;4852741;29;20050;-80
2023/01/19 00:33:34;;;;;;;2.17;1.10;;;;;;;16.80;53.47;99952.69;4879573;29;20065;-80
2023/01/19 00:36:00;;;;;;;3.22;1.30;;;;;;;16.79;53.52;99952.72;4870787;29;20476;-80
2023/01/19 00:38:26;;;;;;;3.22;1.23;;;;;;;16.78;53.49;99953.59;4886221;29;20040;-81
2023/01/19 00:40:51;;;;;;;3.42;1.27;;;;;;;16.79;53.60;99955.31;4884112;29;20040;-80
2023/01/19 00:43:16;;;;;;;2.08;1.00;;;;;;;16.78;53.70;99957.03;4852146;29;20037;-80
2023/01/19 00:45:44;;;;;;;2.47;1.10;;;;;;;16.79;53.60;99958.75;4867953;29;20079;-80
2023/01/19 00:48:09;;;;;;;3.10;1.17;;;;;;;16.79;53.47;99947.50;4867908;29;20032;-81
2023/01/19 00:50:35;;;;;;;2.65;1.23;;;;;;;16.78;53.58;99958.78;4883117;29;20056;-80
2023/01/19 00:53:00;;;;;;;3.95;1.50;;;;;;;16.77;53.53;99960.53;4852448;29;20514;-81
2023/01/19 00:55:27;;;;;;;1.80;1.13;;;;;;;16.77;53.26;99967.47;4869123;29;20056;-81
2023/01/19 00:57:53;;;;;;;2.78;1.30;;;;;;;16.77;53.39;99978.72;4869776;29;20040;-81
2023/01/19 01:00:19;;;;;;;3.15;1.10;;;;;;;16.77;53.67;99983.91;4854290;29;20037;-81
2023/01/19 01:02:46;;;;;;;3.75;1.00;;;;;;;16.77;53.37;99994.31;4886610;29;20036;-81
2023/01/19 01:05:12;;;;;;;2.03;1.00;;;;;;;16.76;53.38;99999.53;4886422;29;20476;-81
2023/01/19 01:07:40;;;;;;;3.25;1.27;;;;;;;16.76;53.49;99999.53;4869922;29;20039;-81
2023/01/19 01:22:38;;;;;;;2.95;1.17;;;;;;;16.74;53.42;100016.88;4714761;23;20341;-83
2023/01/19 01:25:05;;;;;;;2.28;0.95;;;;;;;16.75;53.65;100023.81;4900230;23;20091;-76
2023/01/19 01:27:31;;;;;;;2.05;1.00;;;;;;;16.74;53.42;100025.53;4859208;29;20065;-76
2023/01/19 01:29:56;;;;;;;2.67;1.00;;;;;;;16.75;53.37;100029.00;4830035;29;20125;-76
2023/01/19 01:32:22;;;;;;;3.90;0.93;;;;;;;16.75;53.49;100036.78;4858786;29;20100;-76
2023/01/19 01:34:47;;;;;;;2.13;0.90;;;;;;;16.75;53.39;100026.41;4845631;29;20063;-77
2023/01/19 01:37:13;;;;;;;2.15;1.02;;;;;;;16.74;53.59;100027.28;4827987;29;20500;-75
2023/01/19 01:39:38;;;;;;;1.95;1.00;;;;;;;16.74;53.32;100035.91;4844416;29;20063;-76
2023/01/19 01:44:53;;;;;;;2.75;1.13;;;;;;;16.75;53.23;100032.44;4830024;29;1357851;-76
2023/01/19 01:47:25;;;;;;;2.42;0.85;;;;;;;16.75;53.48;100039.41;4875158;29;20080;-77
2023/01/19 01:49:55;;;;;;;4.22;1.00;;;;;;;16.75;53.23;100042.84;4860116;29;20492;-76
2023/01/19 01:52:23;;;;;;;2.40;0.95;;;;;;;16.73;53.26;100052.41;4858274;29;20135;-76
2023/01/19 01:54:49;;;;;;;2.00;0.90;;;;;;;16.73;53.60;100043.75;4860352;29;20437;-76
2023/01/19 01:57:14;;;;;;;2.50;0.90;;;;;;;16.73;53.51;100059.34;4827150;29;20057;-77
2023/01/19 01:59:44;;;;;;;2.38;0.80;;;;;;;16.73;53.47;100065.41;4841085;29;20105;-76
2023/01/19 02:04:34;;;;;;;1.30;0.73;;;;;;;16.73;53.36;100090.53;4874862;29;20101;-77
2023/01/19 02:14:56;;;;;;;;;;;;;;;16.71;53.31;100068.91;4852872;29;20225;-83
2023/01/19 02:17:21;;;;;;;2.63;1.00;;;;;;;16.68;53.60;100072.44;4842496;29;20042;-81
2023/01/19 02:19:47;;;;;;;2.35;0.80;;;;;;;16.69;53.33;100068.09;4842502;29;20046;-80
2023/01/19 02:22:22;;;;;;;1.67;0.93;;;;;;;16.69;53.42;100081.06;4843406;29;20104;-81
2023/01/19 02:24:48;;;;;;;1.52;0.77;;;;;;;16.67;53.50;100079.34;4859985;29;20147;-79
2023/01/19 02:27:15;;;;;;;2.63;1.05;;;;;;;16.67;53.37;100071.53;4828972;29;20044;-82
2023/01/19 02:29:40;;;;;;;2.72;1.05;;;;;;;16.69;53.31;100073.28;4859952;29;20056;-82
2023/01/19 02:32:07;;;;;;;1.90;1.00;;;;;;;16.67;53.34;100066.34;4857527;29;20060;-81
2023/01/19 02:34:34;;;;;;;2.20;0.88;;;;;;;16.67;53.32;100068.94;4843083;29;20064;-84
2023/01/19 02:39:35;;;;;;;3.42;1.13;;;;;;;16.67;53.46;100068.09;4874581;29;20073;-82
2023/01/19 02:42:21;;;;;;;2.67;0.90;;;;;;;16.66;53.41;100067.25;4860098;29;20053;-79
2023/01/19 02:44:49;;;;;;;2.45;0.93;;;;;;;16.66;53.40;100064.66;4855276;29;20192;-82
2023/01/19 02:47:14;;;;;;;1.75;0.95;;;;;;;16.65;53.46;100065.50;4857118;29;20049;-81
2023/01/19 02:49:40;;;;;;;1.60;0.70;;;;;;;16.64;53.30;100069.00;4855533;29;20089;-81
2023/01/19 02:54:40;;;;;;;2.58;1.10;;;;;;;16.65;53.47;100077.66;4874524;29;20049;-80
2023/01/19 02:57:24;;;;;;;2.20;0.80;;;;;;;16.65;53.25;100088.03;4876334;29;20052;-79
2023/01/19 03:02:48;;;;;;;1.77;0.70;;;;;;;16.65;53.62;100091.50;4866946;29;20064;-84
2023/01/19 03:05:45;;;;;;;2.53;1.08;;;;;;;16.64;53.40;100095.00;4858780;29;20065;-80
2023/01/19 03:10:39;;;;;;;2.10;0.90;;;;;;;16.64;53.45;100094.16;4874682;29;20053;-81
2023/01/19 03:15:34;;;;;;;2.00;0.88;;;;;;;16.63;53.37;100098.47;4874253;29;20783;-80
2023/01/19 03:20:27;;;;;;;1.45;0.77;;;;;;;16.62;53.36;100095.91;4874819;29;20056;-82
2023/01/19 03:25:28;;;;;;;1.70;0.77;;;;;;;16.62;53.00;100109.75;4874213;29;20156;-82
2023/01/19 03:27:56;;;;;;;1.88;0.90;;;;;;;16.62;53.37;100104.56;4859186;29;20053;-83
2023/01/19 03:30:27;;;;;;;2.42;1.00;;;;;;;16.61;53.24;100110.66;4857235;29;20052;-81
2023/01/19 03:35:30;;;;;;;2.40;0.80;;;;;;;16.63;53.35;100121.00;4873814;29;20079;-83
2023/01/19 03:37:57;;;;;;;2.63;0.98;;;;;;;16.63;53.39;100121.00;4859038;29;20112;-82
2023/01/19 03:40:26;;;;;;;2.83;0.98;;;;;;;16.62;53.31;100133.13;4874741;29;20443;-82
2023/01/19 03:42:52;;;;;;;2.67;1.00;;;;;;;16.63;53.28;100129.63;4859269;29;20060;-81
2023/01/19 03:45:18;;;;;;;2.00;0.90;;;;;;;16.62;53.14;100130.53;4843723;29;20052;-81
2023/01/19 03:47:44;;;;;;;2.30;1.02;;;;;;;16.62;53.14;100133.13;4863235;29;20053;-82
2023/01/19 03:50:19;;;;;;;1.35;0.82;;;;;;;16.63;53.10;100133.97;4845088;29;20060;-80
2023/01/19 03:52:44;;;;;;;2.22;0.60;;;;;;;16.64;53.04;100141.75;4879144;29;20064;-79
2023/01/19 03:57:35;;;;;;;1.70;0.80;;;;;;;16.63;53.13;100140.03;4878000;29;20059;-80
2023/01/19 04:02:26;;;;;;;2.88;0.90;;;;;;;16.64;53.06;100139.16;4878211;29;20060;-81
2023/01/19 04:04:51;;;;;;;2.72;0.88;;;;;;;16.64;53.09;100144.34;4865966;29;20057;-81
2023/01/19 04:07:18;;;;;;;1.83;0.70;;;;;;;16.64;53.14;100146.09;4865753;29;20061;-81
2023/01/19 04:09:43;;;;;;;1.58;0.80;;;;;;;16.65;53.20;100147.78;4877129;29;20072;-82
2023/01/19 04:14:34;;;;;;;1.92;0.90;;;;;;;16.65;52.93;100169.44;4880493;29;20057;-85
2023/01/19 04:16:59;;;;;;;2.08;0.93;;;;;;;16.66;53.12;100165.97;4833209;29;20060;-81
2023/01/19 04:19:25;;;;;;;3.35;0.90;;;;;;;16.66;53.15;100176.34;4861134;29;20079;-84
2023/01/19 04:21:50;;;;;;;2.20;1.05;;;;;;;16.66;53.32;100168.56;4829613;29;20415;-81
2023/01/19 04:24:16;;;;;;;1.45;0.80;;;;;;;16.67;53.19;100180.66;4861433;29;20068;-84
2023/01/19 04:26:42;;;;;;;1.95;0.80;;;;;;;16.67;53.28;100192.78;4839540;29;20071;-84
2023/01/19 04:29:08;;;;;;;2.75;1.08;;;;;;;16.67;53.05;100198.84;4843000;29;20505;-81
2023/01/19 04:31:34;;;;;;;2.58;0.90;;;;;;;16.66;52.86;100197.13;4828693;29;20057;-79
2023/01/19 04:36:26;;;;;;;1.88;0.75;;;;;;;16.66;53.08;100201.50;4877542;29;20053;-83
2023/01/19 04:38:51;;;;;;;2.28;1.00;;;;;;;16.66;53.21;100189.34;4829121;29;20117;-82
2023/01/19 04:41:17;;;;;;;2.10;1.00;;;;;;;16.65;53.11;100190.22;4845580;29;20037;-80
2023/01/19 04:43:43;;;;;;;1.85;0.70;;;;;;;16.65;53.18;100190.22;4861465;29;20492;-82
2023/01/19 04:46:08;;;;;;;2.95;1.10;;;;;;;16.64;53.18;100187.66;4828082;29;20037;-80
2023/01/19 04:48:33;;;;;;;2.08;1.00;;;;;;;16.65;53.31;100184.16;4828124;29;20430;-81
2023/01/19 04:50:59;;;;;;;2.03;0.80;;;;;;;16.64;53.17;100190.25;4862385;29;20045;-84
2023/01/19 04:53:24;;;;;;;1.30;0.70;;;;;;;16.64;53.14;100198.06;4843907;29;20057;-81
2023/01/19 04:55:54;;;;;;;1.85;0.90;;;;;;;16.62;53.31;100198.06;4847119;29;20045;-83
2023/01/19 04:58:19;;;;;;;2.15;0.80;;;;;;;16.63;53.28;100191.13;4858926;29;20053;-78
2023/01/19 05:00:45;;;;;;;1.55;0.77;;;;;;;16.62;53.13;100207.59;4845950;29;20049;-77
2023/01/19 05:03:10;;;;;;;1.95;0.80;;;;;;;16.61;53.08;100196.38;4861201;29;20399;-76
2023/01/19 05:05:35;;;;;;;1.87;0.83;;;;;;;16.62;53.13;100195.47;4859160;29;20498;-77
2023/01/19 05:10:26;;;;;;;1.63;0.77;;;;;;;16.61;53.05;100204.16;4875827;29;20576;-75
2023/01/19 05:12:51;;;;;;;1.98;0.80;;;;;;;16.61;53.43;100204.16;4845614;29;20061;-77
2023/01/19 05:15:17;;;;;;;2.30;1.00;;;;;;;16.62;53.02;100208.47;4841487;29;20077;-77
2023/01/19 05:17:43;;;;;;;2.58;0.80;;;;;;;16.62;53.08;100212.81;4861239;29;20554;-76
2023/01/19 05:22:33;;;;;;;2.38;0.90;;;;;;;16.62;53.04;100216.25;4875403;29;20060;-77
2023/01/19 05:25:00;;;;;;;3.08;1.00;;;;;;;16.62;52.89;100220.59;4860754;29;20068;-76
2023/01/19 05:27:27;;;;;;;1.20;0.60;;;;;;;16.60;53.15;100223.22;4836010;29;20069;-77
2023/01/19 05:29:53;;;;;;;3.03;0.90;;;;;;;16.63;52.86;100224.91;4853762;29;20075;-77
2023/01/19 05:32:18;;;;;;;2.78;0.95;;;;;;;16.63;53.10;100230.94;4828386;29;20487;-77
2023/01/19 05:34:44;;;;;;;2.28;0.65;;;;;;;16.62;52.87;100233.59;4840978;29;20072;-76
2023/01/19 05:37:10;;;;;;;2.28;0.80;;;;;;;16.62;52.97;100236.19;4827095;29;20519;-77
2023/01/19 05:39:35;;;;;;;2.60;0.98;;;;;;;16.61;53.14;100230.13;4838513;29;20046;-76
2023/01/19 05:44:26;;;;;;;2.17;0.80;;;;;;;16.62;53.14;100234.44;4874581;29;20072;-78
2023/01/19 05:46:52;;;;;;;2.28;0.80;;;;;;;16.63;53.09;100237.88;4826384;29;20050;-76
2023/01/19 05:49:17;;;;;;;1.48;0.60;;;;;;;16.64;53.27;100231.81;4841453;29;20120;-75
2023/01/19 05:51:44;;;;;;;3.40;1.05;;;;;;;16.64;53.19;100239.63;4844394;29;20041;-79
2023/01/19 05:54:12;;;;;;;2.00;0.90;;;;;;;16.63;53.02;100237.88;4856591;29;20049;-76
2023/01/19 05:56:38;;;;;;;2.33;1.00;;;;;;;16.63;53.11;100243.09;4859587;29;20529;-76
2023/01/19 06:02:49;;;;;;;2.42;0.90;;;;;;;16.62;52.88;100244.81;5115226;27;20407;-77
2023/01/19 06:05:15;;;;;;;2.30;0.80;;;;;;;16.64;53.25;100252.59;5074234;28;20048;-77
2023/01/19 06:07:41;;;;;;;3.17;1.10;;;;;;;16.64;53.41;100248.25;5076846;28;20056;-77
2023/01/19 06:10:07;;;;;;;6.57;2.30;;;;;;;16.64;52.94;100253.47;5079620;28;20051;-76
2023/01/19 06:12:34;;;;;;;9.82;3.78;;;;;;;16.65;52.96;100262.09;5084590;28;20044;-77
2023/01/19 06:14:59;;;;;;;12.68;4.78;;;;;;;16.66;53.12;100264.69;5080572;28;20058;-77
2023/01/19 06:17:24;;;;;;;13.98;5.13;;;;;;;16.67;53.13;100260.34;5095667;28;20390;-78
2023/01/19 06:19:50;;;;;;;12.68;4.78;;;;;;;16.67;53.09;100258.59;5105221;28;21261;-75
2023/01/19 06:22:16;;;;;;;15.75;5.15;;;;;;;16.69;53.22;100266.38;5079645;28;20040;-81
2023/01/19 06:24:41;;;;;;;15.90;5.00;;;;;;;16.70;53.23;100262.03;5094637;28;20075;-77
2023/01/19 06:27:07;;;;;;;14.23;4.63;;;;;;;16.69;53.21;100268.97;5080825;28;20048;-89
2023/01/19 06:29:32;;;;;;;9.73;4.35;;;;;;;16.71;53.17;100266.38;5082853;28;20036;-88
2023/01/19 06:32:00;;;;;;;12.63;4.68;;;;;;;16.71;53.38;100268.97;5083587;28;20050;-88
2023/01/19 06:36:51;;;;;;;9.93;3.70;;;;;;;16.72;53.35;100288.84;5108652;28;20044;-90
2023/01/19 06:41:49;;;;;;;8.55;3.90;;;;;;;16.72;53.37;100289.69;5121935;27;20051;-92
2023/01/19 06:44:15;;;;;;;12.50;3.63;;;;;;;16.73;53.37;100307.03;5132932;27;20119;-89
2023/01/19 06:46:40;;;;;;;9.63;4.50;;;;;;;16.79;53.63;100301.75;5134435;27;20709;-91
2023/01/19 06:49:06;;;;;;;10.57;4.78;;;;;;;16.79;53.54;100306.09;5084190;28;20039;-91
2023/01/19 06:51:32;;;;;;;15.02;4.72;;;;;;;16.78;53.42;100310.41;5102256;28;20036;-90
2023/01/19 06:53:57;;;;;;;20.17;5.38;;;;;;;16.78;53.60;100310.41;5099339;27;20035;-90
2023/01/19 06:58:49;;;;;;;18.65;5.60;;;;;;;16.80;53.67;100323.41;5141126;27;20067;-90
2023/01/19 07:01:15;;;;;;;10.55;4.72;;;;;;;16.80;53.57;100323.41;5129085;27;20059;-92
2023/01/19 07:03:40;;;;;;;14.98;4.75;;;;;;;16.80;53.55;100328.63;5131245;27;20055;-87
2023/01/19 07:06:06;;;;;;;12.63;4.07;;;;;;;16.81;53.61;100335.50;5117251;27;20115;-86
2023/01/19 07:08:35;;;;;;;10.27;4.43;;;;;;;16.79;53.50;100343.31;5135130;27;20078;-87
2023/01/19 07:11:04;;;;;;;11.15;4.20;;;;;;;16.79;53.46;100340.72;5122296;27;20051;-86
2023/01/19 07:13:30;;;;;;;10.02;3.88;;;;;;;16.80;53.25;100346.81;5124959;27;20571;-87
2023/01/19 07:15:55;;;;;;;8.55;4.13;;;;;;;16.79;53.31;100351.13;5089530;28;20143;-86
2023/01/19 07:20:48;;;;;;;7.75;3.38;;;;;;;16.79;53.55;100353.72;5114529;27;20069;-84
2023/01/19 07:23:14;;;;;;;9.05;3.60;;;;;;;16.79;53.34;100364.09;5107713;28;20100;-86
2023/01/19 07:25:40;;;;;;;9.93;3.28;;;;;;;16.79;53.39;100361.50;5113836;28;20048;-87
2023/01/19 07:28:05;;;;;;;8.05;3.53;;;;;;;16.78;53.33;100367.56;5108320;28;20051;-87
2023/01/19 07:30:30;;;;;;;8.85;3.28;;;;;;;16.80;53.47;100372.78;5112173;28;20052;-87
2023/01/19 07:32:56;;;;;;;8.23;3.60;;;;;;;16.78;53.25;100371.91;5099254;28;20082;-88
2023/01/19 07:37:47;;;;;;;6.75;2.83;;;;;;;16.79;53.22;100378.84;5112790;27;20059;-88
2023/01/19 07:40:12;;;;;;;8.55;3.33;;;;;;;16.80;53.07;100377.97;5099482;28;20044;-87
2023/01/19 07:42:38;;;;;;;6.38;2.80;;;;;;;16.79;53.15;100394.44;5091635;28;20048;-86
2023/01/19 07:45:04;;;;;;;7.22;3.42;;;;;;;16.79;53.24;100389.25;5081956;28;20507;-86
2023/01/19 07:47:29;;;;;;;6.75;3.20;;;;;;;16.79;53.08;100404.84;5097162;27;20039;-85
2023/01/19 07:49:55;;;;;;;8.27;3.13;;;;;;;16.79;52.99;100404.84;5107754;27;20157;-85
2023/01/19 07:54:45;;;;;;;7.03;2.92;;;;;;;16.79;53.00;100408.28;5115822;27;20043;-85
2023/01/19 07:57:10;;;;;;;5.45;2.92;;;;;;;16.80;52.83;100417.81;5078129;28;20051;-85
2023/01/19 07:59:37;;;;;;;6.90;2.55;;;;;;;16.81;52.78;100418.66;5094490;27;20536;-85
2023/01/19 08:02:02;;;;;;;6.13;2.60;;;;;;;16.81;52.95;100427.34;5092683;27;20422;-86
2023/01/19 08:04:28;;;;;;;6.15;2.58;;;;;;;16.80;52.76;100420.41;5109412;27;20050;-83
2023/01/19 08:06:54;;;;;;;5.22;2.58;;;;;;;16.81;52.97;100432.53;5071957;27;20110;-83
2023/01/19 08:11:45;;;;;;;5.82;2.45;;;;;;;16.82;52.62;100439.44;5111958;27;20484;-84
2023/01/19 08:14:10;;;;;;;5.18;2.53;;;;;;;16.82;52.57;100434.25;5080964;28;20168;-84
2023/01/19 08:16:36;;;;;;;5.97;2.30;;;;;;;16.81;52.39;100440.34;5107269;28;20063;-87
2023/01/19 08:19:02;;;;;;;5.43;2.70;;;;;;;16.81;52.59;100439.47;5093666;28;20146;-86
2023/01/19 08:21:28;;;;;;;5.53;2.38;;;;;;;16.82;52.69;100439.44;5078850;27;20039;-84
2023/01/19 08:23:55;;;;;;;4.72;2.50;;;;;;;16.82;52.69;100444.66;5084866;28;20044;-85
2023/01/19 08:28:46;;;;;;;4.88;2.30;;;;;;;16.83;52.49;100450.69;5110701;28;20047;-86
2023/01/19 08:31:11;;;;;;;4.65;2.00;;;;;;;16.84;52.40;100461.06;5088957;28;20052;-83
2023/01/19 08:33:36;;;;;;;5.05;2.20;;;;;;;16.85;52.32;100464.53;5073129;28;20063;-84
2023/01/19 08:36:02;;;;;;;4.40;2.05;;;;;;;16.86;52.50;100472.31;5064798;28;20047;-86
2023/01/19 08:38:27;;;;;;;4.20;2.00;;;;;;;16.91;52.17;100472.25;5109124;28;20074;-83
2023/01/19 08:40:53;;;;;;;6.35;2.20;;;;;;;16.94;52.18;100473.94;5060984;28;20056;-87
2023/01/19 08:45:50;;;;;;;3.47;1.80;;;;;;;16.98;51.73;100475.63;5111773;27;20040;-85
2023/01/19 08:50:45;;;;;;;5.70;2.08;;;;;;;17.01;51.91;100479.06;5110752;27;20398;-85
2023/01/19 08:53:10;;;;;;;4.50;2.22;;;;;;;17.01;52.04;100484.28;5114195;27;20397;-85
2023/01/19 08:55:37;;;;;;;3.97;1.67;;;;;;;17.03;52.10;100481.66;5088260;28;20051;-83
2023/01/19 08:58:03;;;;;;;4.32;2.28;;;;;;;17.04;51.90;100484.22;5097580;28;20134;-83
2023/01/19 09:02:55;;;;;;;4.00;1.95;;;;;;;17.04;51.98;100481.63;5109816;28;20473;-85
2023/01/19 09:07:46;;;;;;;3.10;1.60;;;;;;;17.05;51.71;100492.91;5110331;27;20055;-85
2023/01/19 09:10:13;;;;;;;3.38;1.65;;;;;;;17.05;51.81;100491.16;5088862;28;20052;-85
2023/01/19 09:12:39;;;;;;;3.45;1.70;;;;;;;17.06;51.84;100502.41;5108998;27;20147;-87
2023/01/19 09:15:05;;;;;;;3.17;1.42;;;;;;;17.05;51.67;100504.16;5078848;28;20063;-87
2023/01/19 09:17:30;;;;;;;4.18;1.70;;;;;;;17.06;51.84;100507.59;5101152;28;20048;-86
2023/01/19 09:19:55;;;;;;;3.17;1.60;;;;;;;17.06;51.71;100510.19;5112043;28;20143;-87
2023/01/19 09:22:28;;;;;;;3.20;1.70;;;;;;;17.05;51.80;100508.50;5055907;28;20075;-87
2023/01/19 09:24:53;;;;;;;2.33;1.15;;;;;;;17.05;51.79;100508.50;5057783;27;20055;-87
2023/01/19 09:27:25;;;;;;;3.25;1.70;;;;;;;17.04;51.59;100511.97;5077749;28;20048;-81
2023/01/19 09:29:52;;;;;;;3.00;1.58;;;;;;;17.05;51.93;100508.50;5084126;28;20079;-87
2023/01/19 09:34:43;;;;;;;2.88;1.38;;;;;;;17.06;51.77;100512.81;5109917;27;20538;-81
2023/01/19 09:37:08;;;;;;;3.10;1.48;;;;;;;17.05;51.63;100516.28;5090720;27;20043;-84
2023/01/19 09:39:34;;;;;;;4.15;1.40;;;;;;;17.04;51.34;100515.41;5068694;28;20437;-86
2023/01/19 09:47:57;;;;;;;3.10;1.40;;;;;;;17.05;51.04;100519.75;5127545;28;20073;-84
2023/01/19 09:53:01;;;;;;;2.45;1.30;;;;;;;17.05;51.40;100518.91;5129475;27;20063;-87
2023/01/19 09:55:26;;;;;;;3.70;1.50;;;;;;;17.05;51.20;100521.50;5130698;28;20020;-84
2023/01/19 09:57:52;;;;;;;3.15;1.30;;;;;;;17.05;51.22;100526.69;5088802;28;20062;-85
2023/01/19 10:02:48;;;;;;;3.33;1.50;;;;;;;17.05;51.19;100527.53;5111003;27;20695;-87
2023/01/19 10:08:09;;;;;;;4.00;1.40;;;;;;;17.05;51.25;100529.28;5099132;28;20047;-85
2023/01/19 10:10:36;;;;;;;2.33;1.13;;;;;;;17.05;51.21;100529.28;5117225;27;20055;-86
2023/01/19 10:13:04;;;;;;;2.42;1.33;;;;;;;17.06;50.95;100538.81;5105448;28;20092;-88
2023/01/19 10:15:51;;;;;;;2.50;1.10;;;;;;;17.05;50.86;100537.94;5073528;28;1299789;-88
2023/01/19 10:20:49;;;;;;;2.08;0.88;;;;;;;17.06;51.12;100546.59;5118644;27;20059;-84
2023/01/19 10:25:42;;;;;;;2.50;1.15;;;;;;;17.07;50.95;100545.72;5100663;28;20052;-87
2023/01/19 10:28:07;;;;;;;2.60;1.15;;;;;;;17.06;50.91;100542.25;5090427;28;20112;-85
2023/01/19 10:30:34;;;;;;;1.48;0.90;;;;;;;17.06;50.82;100541.41;5092565;28;20062;-87
2023/01/19 10:32:59;;;;;;;2.65;1.42;;;;;;;17.07;50.97;100545.72;5089250;28;20083;-86
2023/01/19 10:35:25;;;;;;;2.35;1.17;;;;;;;17.08;50.94;100547.44;5076241;27;20455;-84
2023/01/19 10:37:57;;;;;;;3.45;1.30;;;;;;;17.09;50.95;100556.09;5094867;28;20047;-85
2023/01/19 10:42:47;;;;;;;2.33;0.98;;;;;;;17.10;50.83;100555.22;5109417;27;20039;-81
2023/01/19 10:47:44;;;;;;;1.98;1.00;;;;;;;17.09;50.86;100554.34;5118198;27;20053;-81
2023/01/19 10:58:55;;;;;;;3.08;1.10;;;;;;;17.08;50.79;100552.66;5125398;27;20062;-84
2023/01/19 11:03:46;;;;;;;2.00;0.90;;;;;;;17.09;50.63;100548.28;5123080;27;20059;-83
2023/01/19 11:06:14;;;;;;;1.95;1.17;;;;;;;17.10;50.55;100548.28;5103405;27;20055;-83
2023/01/19 11:08:40;;;;;;;2.00;0.80;;;;;;;17.10;50.71;100548.28;5116259;27;20052;-84
2023/01/19 11:11:11;;;;;;;2.42;1.00;;;;;;;17.12;50.59;100548.28;5102037;28;20032;-83
2023/01/19 11:18:43;;;;;;;2.33;1.02;;;;;;;17.19;50.45;100553.38;5091567;28;20056;-83
2023/01/19 11:32:11;;;;;;;2.05;0.98;;;;;;;17.19;50.37;100547.31;5064295;28;20059;-83
2023/01/19 11:37:09;;;;;;;2.08;0.98;;;;;;;17.19;50.46;100549.91;1707986;28;20046;-83
2023/01/19 11:42:02;;;;;;;1.52;0.80;;;;;;;17.20;50.38;100552.50;5101176;28;20039;-82
2023/01/19 11:46:57;;;;;;;1.83;0.80;;;;;;;17.22;50.30;100547.25;5111867;28;20059;-84
2023/01/19 11:56:42;;;;;;;2.30;0.88;;;;;;;17.22;50.24;100566.34;5116010;28;20059;-82
2023/01/19 12:01:57;;;;;;;2.20;1.00;;;;;;;17.21;50.12;100554.22;5101435;28;20059;-82
2023/01/19 12:09:45;;;;;;;2.10;0.98;;;;;;;17.25;49.86;100568.03;5092562;28;20059;-86
2023/01/19 12:15:13;;;;;;;1.30;0.70;;;;;;;17.22;50.19;100555.94;5100955;28;20056;-83
2023/01/19 12:17:46;;;;;;;1.92;1.00;;;;;;;17.20;50.18;100568.09;5078623;28;20506;-83
2023/01/19 12:23:04;;;;;;;1.90;0.75;;;;;;;17.20;50.31;100559.41;5094296;28;20044;-82
2023/01/19 12:25:42;;;;;;;1.80;1.00;;;;;;;17.20;50.10;100567.22;5076041;28;20124;-84
2023/01/19 12:28:12;;;;;;;1.73;0.90;;;;;;;17.20;49.97;100564.63;5081623;28;20048;-84
2023/01/19 12:30:38;;;;;;;2.85;1.05;;;;;;;17.19;49.98;100566.38;5073307;28;20386;-83
2023/01/19 12:36:04;;;;;;;2.10;0.80;;;;;;;17.20;49.92;100554.22;5089061;28;20048;-82
2023/01/19 12:38:52;;;;;;;2.17;0.90;;;;;;;17.19;50.14;100562.91;5056602;28;20049;-82
2023/01/19 12:47:02;;;;;;;2.10;1.05;;;;;;;17.21;49.87;100554.22;5103653;28;20058;-86
2023/01/19 12:49:28;;;;;;;2.08;0.80;;;;;;;17.20;49.90;100546.41;5100415;28;20024;-87
2023/01/19 12:55:05;;;;;;;1.67;0.90;;;;;;;17.21;49.91;100562.00;5071045;28;20401;-87
2023/01/19 13:00:05;;;;;;;2.55;0.88;;;;;;;17.21;49.90;100558.56;5098680;28;20481;-86
2023/01/19 13:09:46;;;;;;;1.17;0.60;;;;;;;17.20;49.81;100562.03;5106369;28;20508;-87
2023/01/19 13:14:42;;;;;;;2.20;1.00;;;;;;;17.21;50.02;100562.00;5075926;28;20056;-87
2023/01/19 13:25:12;;;;;;;1.63;0.60;;;;;;;17.24;49.79;100561.97;5076685;28;20048;-85
2023/01/19 13:27:39;;;;;;;1.42;0.60;;;;;;;17.26;49.82;100561.94;5061022;28;20053;-83
2023/01/19 13:30:16;;;;;;;1.25;0.80;;;;;;;17.26;49.83;100572.34;5047548;28;20475;-88
2023/01/19 13:32:42;;;;;;;1.13;0.60;;;;;;;17.26;49.94;100562.81;5080958;28;20048;-82
2023/01/19 13:35:16;;;;;;;1.70;0.73;;;;;;;17.26;49.54;100568.00;5061893;28;20044;-83
2023/01/19 13:37:44;;;;;;;1.50;0.70;;;;;;;17.25;49.74;100570.66;5057370;28;20144;-86
2023/01/19 13:42:42;;;;;;;1.40;0.70;;;;;;;17.25;49.66;100574.09;5094080;28;20052;-84
2023/01/19 13:47:46;;;;;;;1.25;0.80;;;;;;;17.23;49.86;100578.47;5084548;28;20391;-82
2023/01/19 13:52:57;;;;;;;;;;;;;;;17.22;49.92;100592.34;5088813;28;20045;-85
2023/01/19 14:02:59;;;;;;;1.13;0.63;;;;;;;17.19;49.81;100586.31;5094696;28;20048;-83
2023/01/19 14:08:11;;;;;;;1.80;0.60;;;;;;;17.17;49.84;100593.28;5100520;28;20048;-81
2023/01/19 14:10:44;;;;;;;1.50;0.75;;;;;;;17.16;49.78;100597.63;5078613;28;20059;-83
2023/01/19 14:15:43;;;;;;;1.27;0.77;;;;;;;17.16;49.92;100599.34;5068427;28;20127;-82
2023/01/19 14:18:10;;;;;;;1.55;0.68;;;;;;;17.15;49.83;100601.09;5053367;28;20079;-84
2023/01/19 14:20:36;;;;;;;1.80;0.70;;;;;;;17.15;49.62;100601.09;5060264;28;20395;-84
2023/01/19 14:23:03;;;;;;;2.00;0.70;;;;;;;17.15;49.76;100606.28;5061857;28;20044;-84
2023/01/19 14:25:37;;;;;;;0.77;0.60;;;;;;;17.15;49.76;100608.03;5038934;28;20162;-83
2023/01/19 14:33:57;;;;;;;1.15;0.60;;;;;;;17.14;49.63;100612.38;5098957;28;20050;-82
2023/01/19 14:36:54;;;;;;;1.40;0.55;;;;;;;17.12;49.55;100608.06;5059539;28;20049;-86
2023/01/19 14:46:47;;;;;;;0.90;0.63;;;;;;;17.10;49.47;100623.69;5101717;28;20051;-83
2023/01/19 14:51:45;;;;;;;1.20;0.75;;;;;;;17.13;49.43;100625.38;5101241;28;20063;-84
2023/01/19 14:59:09;;;;;;;1.40;0.60;;;;;;;17.10;49.36;100620.22;5103055;28;20051;-83
2023/01/19 15:01:35;;;;;;;1.90;0.70;;;;;;;17.12;49.35;100621.94;5105672;28;20071;-86
2023/01/19 15:04:00;;;;;;;1.50;0.68;;;;;;;17.15;49.22;100621.03;4459723;28;17856101;-82
2023/01/19 15:08:54;;;;;;;2.05;0.70;;;;;;;17.11;49.36;100629.75;5097513;28;20051;-84
2023/01/19 15:13:46;;;;;;;1.67;0.60;;;;;;;17.08;49.22;100630.63;5090699;28;20048;-82
2023/01/19 15:16:11;;;;;;;1.55;0.60;;;;;;;17.07;49.36;100636.69;5066785;28;20040;-83
2023/01/19 15:21:02;;;;;;;1.38;0.60;;;;;;;17.04;49.40;100639.34;5102705;28;20059;-84
2023/01/19 15:23:28;;;;;;;1.83;0.70;;;;;;;17.04;49.40;100647.16;5059416;28;20506;-85
2023/01/19 15:25:59;;;;;;;1.52;0.65;;;;;;;17.03;49.37;100654.09;5047413;28;20060;-86
2023/01/19 15:28:30;;;;;;;1.98;0.75;;;;;;;17.03;49.49;100650.63;5060326;28;20047;-81
2023/01/19 15:31:00;;;;;;;1.83;0.65;;;;;;;17.01;49.39;100648.03;5070619;28;20044;-85
2023/01/19 15:35:51;;;;;;;1.33;0.65;;;;;;;17.01;49.53;100648.03;5106230;28;20035;-87
2023/01/19 15:40:42;;;;;;;1.17;0.70;;;;;;;17.00;49.35;100653.25;5081000;28;20162;-87
2023/01/19 15:45:46;;;;;;;2.50;0.80;;;;;;;17.00;49.41;100646.31;5099800;28;20070;-87
2023/01/19 15:48:13;;;;;;;1.83;0.70;;;;;;;17.00;49.48;100651.50;5043960;28;20052;-77
2023/01/19 15:50:42;;;;;;;1.02;0.60;;;;;;;17.00;49.20;100645.44;5052833;28;20056;-76
2023/01/19 15:53:16;;;;;;;1.45;0.65;;;;;;;17.00;49.43;100654.09;5067390;28;20094;-76